This is the latest recevied weather packets stored in our database for station/object WA6OOO. If no packets are shown the sender has not sent any weather packets the latest 10 day(s).
| Time | Temp. | Humidity | Pressure | Rain* | Wind** | Luminosity | Snow |
|---|---|---|---|---|---|---|---|
| 1778019254 | 18.33° C | 68% | 1017.2 hPa | 0 mm | - | 744 W/m² | - |
| 1778018951 | 18.33° C | 69% | 1017.2 hPa | 0 mm | - | 638 W/m² | - |
| 1778018647 | 18.89° C | 66% | 1017.3 hPa | 0 mm | - | 643 W/m² | - |
| 1778018345 | 18.33° C | 68% | 1017.5 hPa | 0 mm | - | 473 W/m² | - |
| 1778018043 | 19.44° C | 64% | 1017.4 hPa | 0 mm | - | 405 W/m² | - |
| 1778017741 | 20° C | 63% | 1017.4 hPa | 0 mm | - | 773 W/m² | - |
| 1778017438 | 18.89° C | 64% | 1017.7 hPa | 0 mm | - | 647 W/m² | - |
| 1778017135 | 18.33° C | 67% | 1017.6 hPa | 0 mm | - | 815 W/m² | - |
| 1778016833 | 18.33° C | 65% | 1017.5 hPa | 0 mm | - | 338 W/m² | - |
| 1778016529 | 18.89° C | 63% | 1017.5 hPa | 0 mm | - | 564 W/m² | - |
| 1778016226 | 19.44° C | 60% | 1017.9 hPa | 0 mm | - | 404 W/m² | - |
| 1778015922 | 19.44° C | 62% | 1017.7 hPa | 0 mm | - | 905 W/m² | - |
| 1778015620 | 18.89° C | 61% | 1017.6 hPa | 0 mm | - | 729 W/m² | - |
| 1778015316 | 18.33° C | 63% | 1017.7 hPa | 0 mm | - | 697 W/m² | - |
| 1778015013 | 17.78° C | 65% | 1017.6 hPa | 0 mm | - | 684 W/m² | - |
| 1778014710 | 17.78° C | 69% | 1017.8 hPa | 0 mm | - | 373 W/m² | - |
| 1778014408 | 17.78° C | 67% | 1017.7 hPa | 0 mm | - | 347 W/m² | - |
| 1778014105 | 18.33° C | 65% | 1017.6 hPa | 0 mm | - | 480 W/m² | - |
| 1778013803 | 18.33° C | 65% | 1017.6 hPa | 0 mm | - | 443 W/m² | - |
| 1778013500 | 18.33° C | 63% | 1017.4 hPa | 0 mm | - | 569 W/m² | - |
| 1778013196 | 18.33° C | 66% | 1017.6 hPa | 0 mm | - | 621 W/m² | - |
| 1778012892 | 17.78° C | 66% | 1017.7 hPa | 0 mm | - | 657 W/m² | - |
| 1778012589 | 17.78° C | 64% | 1017.5 hPa | 0 mm | - | 467 W/m² | - |
| 1778012286 | 17.78° C | 66% | 1017.7 hPa | 0 mm | - | 378 W/m² | - |
| 1778011983 | 17.78° C | 65% | 1017.6 hPa | 0 mm | - | 336 W/m² | - |
* Rain latest hour (hover to see other rain measurements)
** Current wind speed in m/s (hover to see current wind gust speed)